createdAt,value
2022-09-18T00:00:11.263Z,3.88
2022-09-18T00:02:37.889Z,3.80
2022-09-18T00:05:05.378Z,4.50
2022-09-18T00:07:31.947Z,4.78
2022-09-18T00:09:58.493Z,4.90
2022-09-18T00:12:25.166Z,4.80
2022-09-18T00:14:53.006Z,4.13
2022-09-18T00:17:19.675Z,4.93
2022-09-18T00:19:46.345Z,5.07
2022-09-18T00:22:12.911Z,5.28
2022-09-18T00:24:39.562Z,5.10
2022-09-18T00:27:06.124Z,4.85
2022-09-18T00:29:32.652Z,5.60
2022-09-18T00:31:59.968Z,6.05
2022-09-18T00:34:26.592Z,5.93
2022-09-18T00:36:53.170Z,5.45
2022-09-18T00:39:19.701Z,5.60
2022-09-18T00:41:46.334Z,5.72
2022-09-18T00:44:37.414Z,5.85
2022-09-18T00:47:05.626Z,5.70
2022-09-18T00:49:32.458Z,5.93
2022-09-18T00:52:00.534Z,5.60
2022-09-18T00:54:38.368Z,6.00
2022-09-18T00:57:16.821Z,6.38
2022-09-18T00:59:45.669Z,5.47
2022-09-18T01:02:12.641Z,6.40
2022-09-18T01:04:39.776Z,6.43
2022-09-18T01:07:29.118Z,6.80
2022-09-18T01:10:04.272Z,8.15
2022-09-18T01:12:44.326Z,7.38
2022-09-18T01:15:13.969Z,7.00
2022-09-18T01:18:03.701Z,7.10
2022-09-18T01:20:49.161Z,6.60
2022-09-18T01:23:34.147Z,6.85
2022-09-18T01:26:31.597Z,7.35
2022-09-18T01:29:11.850Z,7.18
2022-09-18T01:31:46.096Z,8.13
2022-09-18T01:34:18.737Z,7.47
2022-09-18T01:36:49.754Z,7.03
2022-09-18T01:39:22.290Z,7.65
2022-09-18T01:41:51.523Z,8.30
2022-09-18T01:44:22.330Z,7.57
2022-09-18T01:46:50.035Z,7.53
2022-09-18T01:49:20.918Z,7.88
2022-09-18T01:51:50.609Z,9.20
2022-09-18T01:54:20.783Z,8.52
2022-09-18T01:57:03.163Z,8.32
2022-09-18T01:59:38.350Z,7.80
2022-09-18T02:02:08.804Z,7.50
2022-09-18T02:04:37.618Z,7.43
2022-09-18T02:07:14.995Z,7.85
2022-09-18T02:09:42.580Z,7.30
2022-09-18T02:12:11.965Z,7.57
2022-09-18T02:14:41.903Z,7.65
2022-09-18T02:17:24.704Z,6.68
2022-09-18T02:20:00.442Z,6.32
2022-09-18T02:22:30.596Z,6.68
2022-09-18T02:24:59.775Z,6.13
2022-09-18T02:27:26.463Z,6.60
2022-09-18T02:29:54.127Z,6.18
2022-09-18T02:32:20.781Z,5.72
2022-09-18T02:34:47.657Z,5.72
2022-09-18T02:37:37.561Z,6.25
2022-09-18T02:40:28.366Z,5.07
2022-09-18T02:43:09.285Z,5.85
2022-09-18T02:45:58.503Z,6.10
2022-09-18T02:48:48.019Z,5.80
2022-09-18T02:51:17.703Z,6.35
2022-09-18T02:53:59.353Z,6.20
2022-09-18T02:56:37.530Z,6.47
2022-09-18T02:59:17.490Z,4.90
2022-09-18T03:01:45.400Z,5.03
2022-09-18T03:04:15.645Z,6.38
2022-09-18T03:06:42.252Z,5.50
2022-09-18T03:09:08.813Z,5.40
2022-09-18T03:11:35.446Z,5.63
2022-09-18T03:14:02.002Z,5.70
2022-09-18T03:16:28.612Z,6.72
2022-09-18T03:18:55.253Z,6.82
2022-09-18T03:21:21.879Z,6.65
2022-09-18T03:23:48.458Z,6.57
2022-09-18T03:26:15.020Z,6.10
2022-09-18T03:28:41.678Z,7.53
2022-09-18T03:31:08.407Z,6.93
2022-09-18T03:33:35.028Z,6.78
2022-09-18T03:36:02.289Z,6.45
2022-09-18T03:38:29.029Z,6.70
2022-09-18T03:40:55.582Z,6.10
2022-09-18T03:43:22.179Z,6.22
2022-09-18T03:45:49.007Z,5.63
2022-09-18T03:48:15.580Z,6.15
2022-09-18T03:50:42.165Z,6.10
2022-09-18T03:53:08.839Z,6.30
2022-09-18T03:55:36.192Z,6.80
2022-09-18T03:58:02.793Z,6.15
2022-09-18T04:00:29.498Z,7.10
2022-09-18T04:02:56.197Z,6.10
2022-09-18T04:05:22.945Z,5.78
2022-09-18T04:07:49.590Z,5.72
2022-09-18T04:10:16.487Z,5.13
2022-09-18T04:12:47.818Z,5.07
2022-09-18T04:17:43.534Z,4.53
2022-09-18T04:20:10.191Z,4.10
2022-09-18T04:22:37.075Z,4.35
2022-09-18T04:25:04.598Z,4.82
2022-09-18T04:27:31.258Z,3.90
2022-09-18T04:29:57.809Z,4.38
2022-09-18T04:32:24.468Z,4.57
2022-09-18T04:34:51.034Z,4.40
2022-09-18T04:37:17.690Z,3.85
2022-09-18T04:39:44.435Z,3.88
2022-09-18T04:42:10.985Z,3.65
2022-09-18T04:44:37.564Z,2.72
2022-09-18T04:47:04.291Z,3.30
2022-09-18T04:49:30.929Z,2.25
2022-09-18T04:51:57.513Z,1.75
2022-09-18T04:54:24.093Z,2.05
2022-09-18T04:56:50.718Z,2.13
2022-09-18T04:59:17.305Z,1.95
2022-09-18T05:01:43.978Z,1.80
2022-09-18T05:04:11.010Z,2.28
2022-09-18T05:06:37.692Z,2.10
2022-09-18T05:09:04.284Z,1.10
2022-09-18T05:11:30.910Z,1.80
2022-09-18T05:13:58.194Z,1.50
2022-09-18T05:16:25.065Z,1.20
2022-09-18T05:18:52.466Z,1.23
2022-09-18T05:21:19.669Z,1.05
2022-09-18T05:23:47.048Z,1.10
2022-09-18T05:26:14.306Z,1.52
2022-09-18T05:28:41.184Z,1.17
2022-09-18T05:31:08.534Z,1.60
2022-09-18T05:33:36.321Z,1.25
2022-09-18T05:36:05.664Z,1.30
2022-09-18T05:38:32.443Z,1.30
2022-09-18T05:41:02.844Z,1.50
2022-09-18T05:43:30.362Z,1.43
2022-09-18T05:45:57.286Z,1.42
2022-09-18T05:48:24.251Z,1.58
2022-09-18T05:50:52.128Z,1.50
2022-09-18T05:53:21.115Z,1.73
2022-09-18T05:55:48.072Z,1.50
2022-09-18T05:58:16.986Z,1.60
2022-09-18T06:00:46.940Z,1.50
2022-09-18T06:03:15.618Z,1.65
2022-09-18T06:05:43.158Z,1.77
2022-09-18T06:08:11.546Z,1.95
2022-09-18T06:10:39.558Z,1.70
2022-09-18T06:13:13.147Z,2.05
2022-09-18T06:15:39.838Z,1.88
2022-09-18T06:18:08.755Z,2.20
2022-09-18T06:20:35.537Z,2.10
2022-09-18T06:23:02.827Z,2.22
2022-09-18T06:25:30.195Z,2.08
2022-09-18T06:27:58.880Z,1.85
2022-09-18T06:30:31.132Z,1.92
2022-09-18T06:33:02.497Z,2.88
2022-09-18T06:37:55.752Z,1.92
2022-09-18T06:40:22.469Z,1.60
2022-09-18T06:42:49.127Z,1.92
2022-09-18T06:45:15.758Z,1.92
2022-09-18T06:47:42.350Z,1.70
2022-09-18T06:50:09.209Z,1.50
2022-09-18T06:52:36.060Z,1.63
2022-09-18T06:55:02.695Z,1.50
2022-09-18T06:57:29.418Z,1.98
2022-09-18T06:59:56.013Z,1.50
2022-09-18T07:02:22.768Z,1.27
2022-09-18T07:04:49.607Z,1.63
2022-09-18T07:07:16.284Z,1.48
2022-09-18T07:09:42.960Z,1.70
2022-09-18T07:12:09.514Z,1.55
2022-09-18T07:14:36.040Z,1.77
2022-09-18T07:17:03.311Z,1.25
2022-09-18T07:19:29.908Z,1.65
2022-09-18T07:21:56.508Z,1.42
2022-09-18T07:24:23.106Z,1.60
2022-09-18T07:26:49.776Z,1.77
2022-09-18T07:29:16.355Z,1.92
2022-09-18T07:31:43.000Z,1.38
2022-09-18T07:34:11.624Z,1.98
2022-09-18T07:36:38.312Z,1.70
2022-09-18T07:39:05.254Z,2.35
2022-09-18T07:41:31.856Z,1.98
2022-09-18T07:43:58.434Z,1.88
2022-09-18T07:46:25.127Z,2.50
2022-09-18T07:48:51.836Z,2.50
2022-09-18T07:51:22.961Z,1.48
2022-09-18T07:53:52.175Z,1.60
2022-09-18T07:56:18.812Z,2.08
2022-09-18T07:58:45.332Z,1.30
2022-09-18T08:01:11.930Z,1.67
2022-09-18T08:03:41.359Z,1.40
2022-09-18T08:06:08.485Z,1.35
2022-09-18T08:08:36.288Z,1.65
2022-09-18T08:11:03.356Z,1.50
2022-09-18T08:13:30.017Z,1.60
2022-09-18T08:15:57.993Z,0.88
2022-09-18T08:18:24.650Z,0.90
2022-09-18T08:20:51.347Z,0.77
2022-09-18T08:23:17.901Z,1.10
2022-09-18T08:25:44.544Z,0.80
2022-09-18T08:28:11.196Z,0.70
2022-09-18T08:30:38.268Z,0.52
2022-09-18T08:33:07.132Z,0.70
2022-09-18T08:35:34.213Z,0.45
2022-09-18T08:38:01.900Z,0.50
2022-09-18T08:40:43.850Z,0.50
2022-09-18T08:43:16.165Z,0.82
2022-09-18T08:46:05.467Z,0.73
2022-09-18T08:48:35.884Z,0.52
2022-09-18T08:51:40.334Z,0.67
2022-09-18T08:54:19.691Z,0.93
2022-09-18T08:56:46.894Z,0.40
2022-09-18T08:59:44.824Z,0.80
2022-09-18T09:02:24.893Z,0.50
2022-09-18T09:04:53.484Z,0.73
2022-09-18T09:07:43.205Z,1.10
2022-09-18T09:10:28.386Z,1.08
2022-09-18T09:13:27.456Z,0.43
2022-09-18T09:16:05.509Z,0.60
2022-09-18T09:18:37.209Z,0.57
2022-09-18T09:21:22.189Z,0.43
2022-09-18T09:24:28.611Z,0.40
2022-09-18T09:26:56.796Z,0.60
2022-09-18T09:29:29.146Z,0.30
2022-09-18T09:32:06.276Z,0.30
2022-09-18T09:34:52.589Z,0.30
2022-09-18T09:37:24.063Z,0.30
2022-09-18T09:40:00.209Z,0.28
2022-09-18T09:43:03.043Z,0.20
2022-09-18T09:45:46.123Z,0.20
2022-09-18T09:48:23.219Z,0.60
2022-09-18T09:51:08.337Z,0.57
2022-09-18T09:53:35.202Z,0.50
2022-09-18T09:56:25.278Z,0.32
2022-09-18T09:59:29.554Z,0.40
2022-09-18T10:02:11.392Z,0.60
2022-09-18T10:05:10.329Z,0.30
2022-09-18T10:07:42.197Z,0.40
2022-09-18T10:10:23.970Z,0.40
2022-09-18T10:12:52.975Z,0.60
2022-09-18T10:15:41.743Z,0.38
2022-09-18T10:18:16.438Z,0.70
2022-09-18T10:20:44.500Z,0.47
2022-09-18T10:23:23.959Z,0.68
2022-09-18T10:25:55.631Z,0.93
2022-09-18T10:28:25.651Z,0.77
2022-09-18T10:31:12.703Z,0.90
2022-09-18T10:33:45.120Z,0.95
2022-09-18T10:36:28.808Z,1.50
2022-09-18T10:38:55.423Z,1.58
2022-09-18T10:41:28.761Z,1.25
2022-09-18T10:44:04.099Z,1.38
2022-09-18T10:46:33.178Z,1.63
2022-09-18T10:49:04.976Z,0.50
2022-09-18T10:51:31.638Z,0.60
2022-09-18T10:54:14.407Z,0.68
2022-09-18T10:56:41.047Z,0.70
2022-09-18T10:59:29.022Z,0.65
2022-09-18T11:02:01.731Z,0.52
2022-09-18T11:04:29.110Z,0.40
2022-09-18T11:06:56.254Z,0.50
2022-09-18T11:09:37.534Z,0.30
2022-09-18T11:12:04.353Z,0.38
2022-09-18T11:14:58.934Z,0.28
2022-09-18T11:17:31.195Z,0.28
2022-09-18T11:19:59.642Z,0.30
2022-09-18T11:22:44.361Z,0.22
2022-09-18T11:25:13.893Z,0.30
2022-09-18T11:27:50.605Z,0.28
2022-09-18T11:30:21.777Z,0.30
2022-09-18T11:32:50.732Z,0.30
2022-09-18T11:35:19.217Z,0.40
2022-09-18T11:37:53.132Z,0.30
2022-09-18T11:40:32.873Z,0.30
2022-09-18T11:43:02.956Z,0.28
2022-09-18T11:45:41.403Z,0.30
2022-09-18T11:48:12.209Z,0.28
2022-09-18T11:50:39.223Z,0.85
2022-09-18T11:53:12.792Z,0.20
2022-09-18T11:55:54.950Z,0.38
2022-09-18T11:58:31.264Z,0.63
2022-09-18T12:01:38.387Z,0.30
2022-09-18T12:04:11.050Z,0.30
2022-09-18T12:06:56.539Z,0.40
2022-09-18T12:09:56.722Z,0.40
2022-09-18T12:12:43.570Z,0.32
2022-09-18T12:15:20.023Z,0.43
2022-09-18T12:17:56.634Z,0.30
2022-09-18T12:20:34.507Z,0.50
2022-09-18T12:23:01.577Z,0.40
2022-09-18T12:25:37.200Z,0.32
2022-09-18T12:28:31.882Z,0.30
2022-09-18T12:31:13.076Z,0.40
2022-09-18T12:34:24.247Z,0.30
2022-09-18T12:37:00.104Z,0.98
2022-09-18T12:39:40.499Z,0.35
2022-09-18T12:42:14.478Z,0.60
2022-09-18T12:45:10.308Z,0.43
2022-09-18T12:47:49.937Z,0.50
2022-09-18T12:50:55.056Z,0.52
2022-09-18T12:53:41.423Z,0.50
2022-09-18T12:56:14.083Z,0.70
2022-09-18T12:58:43.606Z,1.30
2022-09-18T13:01:27.479Z,0.55
2022-09-18T13:03:56.608Z,0.75
2022-09-18T13:06:35.691Z,0.70
2022-09-18T13:09:10.268Z,0.60
2022-09-18T13:11:41.331Z,0.70
2022-09-18T13:14:40.604Z,0.75
2022-09-18T13:17:17.162Z,1.95
2022-09-18T13:19:51.092Z,1.30
2022-09-18T13:22:18.903Z,1.33
2022-09-18T13:24:46.937Z,1.30
2022-09-18T13:27:15.928Z,1.95
2022-09-18T13:29:51.653Z,1.50
2022-09-18T13:32:35.226Z,1.50
2022-09-18T13:35:06.415Z,1.50
2022-09-18T13:37:33.038Z,2.08
2022-09-18T13:40:10.265Z,1.42
2022-09-18T13:42:42.270Z,2.03
2022-09-18T13:48:12.319Z,1.77
2022-09-18T13:50:49.301Z,1.80
2022-09-18T13:53:31.725Z,1.90
2022-09-18T13:55:58.248Z,1.90
2022-09-18T13:58:30.880Z,2.00
2022-09-18T14:01:02.967Z,1.70
2022-09-18T14:03:37.179Z,1.45
2022-09-18T14:06:34.862Z,1.38
2022-09-18T14:09:03.136Z,1.50
2022-09-18T14:11:29.829Z,2.38
2022-09-18T14:13:57.783Z,2.15
2022-09-18T14:16:28.476Z,1.40
2022-09-18T14:18:58.076Z,1.60
2022-09-18T14:21:28.784Z,1.20
2022-09-18T14:24:06.608Z,1.00
2022-09-18T14:26:37.544Z,0.80
2022-09-18T14:29:14.800Z,1.20
2022-09-18T14:31:41.314Z,1.00
2022-09-18T14:34:32.794Z,1.17
2022-09-18T14:37:02.051Z,0.75
2022-09-18T14:39:31.018Z,0.77
2022-09-18T14:42:04.655Z,0.88
2022-09-18T14:44:32.675Z,0.82
2022-09-18T14:47:02.970Z,0.68
2022-09-18T14:49:34.787Z,0.60
2022-09-18T14:52:04.644Z,0.50
2022-09-18T14:54:31.636Z,1.13
2022-09-18T14:57:01.450Z,0.80
2022-09-18T14:59:29.220Z,0.50
2022-09-18T15:02:23.296Z,0.90
2022-09-18T15:04:50.118Z,1.52
2022-09-18T15:07:18.671Z,0.95
2022-09-18T15:09:48.960Z,0.98
2022-09-18T15:12:18.538Z,1.00
2022-09-18T15:14:47.650Z,0.70
2022-09-18T15:17:23.143Z,0.77
2022-09-18T15:20:01.159Z,1.00
2022-09-18T15:22:29.115Z,1.00
2022-09-18T15:24:58.615Z,0.70
2022-09-18T15:27:25.220Z,0.90
2022-09-18T15:30:22.150Z,1.00
2022-09-18T15:33:00.884Z,0.90
2022-09-18T15:35:35.398Z,0.80
2022-09-18T15:38:05.934Z,0.60
2022-09-18T15:40:35.460Z,0.73
2022-09-18T15:43:04.514Z,1.10
2022-09-18T15:45:33.533Z,0.77
2022-09-18T15:48:02.621Z,0.90
2022-09-18T15:50:35.859Z,0.98
2022-09-18T15:53:14.044Z,1.00
2022-09-18T15:55:56.822Z,0.70
2022-09-18T15:58:29.298Z,0.98
2022-09-18T16:00:58.285Z,0.60
2022-09-18T16:03:28.076Z,0.93
2022-09-18T16:05:56.730Z,1.00
2022-09-18T16:08:27.298Z,0.80
2022-09-18T16:10:53.958Z,0.90
2022-09-18T16:13:20.458Z,1.00
2022-09-18T16:15:47.809Z,0.80
2022-09-18T16:18:29.161Z,0.70
2022-09-18T16:20:57.599Z,0.90
2022-09-18T16:23:31.455Z,0.50
2022-09-18T16:26:10.701Z,0.80
2022-09-18T16:28:52.270Z,0.80
2022-09-18T16:31:21.536Z,0.68
2022-09-18T16:34:01.302Z,0.60
2022-09-18T16:36:36.206Z,0.70
2022-09-18T16:39:07.792Z,0.57
2022-09-18T16:41:35.099Z,1.10
2022-09-18T16:44:02.422Z,0.63
2022-09-18T16:46:33.637Z,1.10
2022-09-18T16:49:00.564Z,0.65
2022-09-18T16:51:27.076Z,0.60
2022-09-18T16:53:53.615Z,0.45
2022-09-18T16:56:28.184Z,0.75
2022-09-18T16:58:56.561Z,0.35
2022-09-18T17:01:23.289Z,0.50
2022-09-18T17:03:50.684Z,0.45
2022-09-18T17:06:18.997Z,1.08
2022-09-18T17:08:46.873Z,0.77
2022-09-18T17:11:13.671Z,1.38
2022-09-18T17:13:40.261Z,1.00
2022-09-18T17:16:06.938Z,1.08
2022-09-18T17:18:34.788Z,0.70
2022-09-18T17:21:02.977Z,0.40
2022-09-18T17:23:30.670Z,0.32
2022-09-18T17:26:05.506Z,0.20
2022-09-18T17:28:32.073Z,0.40
2022-09-18T17:30:58.620Z,0.40
2022-09-18T17:33:25.178Z,0.32
2022-09-18T17:35:51.734Z,0.40
2022-09-18T17:38:18.279Z,0.40
2022-09-18T17:40:55.755Z,0.50
2022-09-18T17:43:25.086Z,0.63
2022-09-18T17:45:56.240Z,0.40
2022-09-18T17:48:22.995Z,0.95
2022-09-18T17:50:56.546Z,0.63
2022-09-18T17:53:23.132Z,0.70
2022-09-18T17:55:51.075Z,0.70
2022-09-18T17:58:18.464Z,0.70
2022-09-18T18:00:45.425Z,0.80
2022-09-18T18:03:12.151Z,0.60
2022-09-18T18:05:38.830Z,0.55
2022-09-18T18:08:05.711Z,0.65
2022-09-18T18:10:32.316Z,0.55
2022-09-18T18:12:58.968Z,0.60
2022-09-18T18:15:25.491Z,0.60
2022-09-18T18:17:53.423Z,0.50
2022-09-18T18:20:19.975Z,0.60
2022-09-18T18:22:47.280Z,0.47
2022-09-18T18:25:13.866Z,0.50
2022-09-18T18:27:40.403Z,0.40
2022-09-18T18:30:08.837Z,0.30
2022-09-18T18:32:35.567Z,0.40
2022-09-18T18:35:02.117Z,0.35
2022-09-18T18:37:28.792Z,0.50
2022-09-18T18:39:55.420Z,0.40
2022-09-18T18:42:22.022Z,0.30
2022-09-18T18:44:48.523Z,0.40
2022-09-18T18:47:17.575Z,0.30
2022-09-18T18:49:44.106Z,0.60
2022-09-18T18:52:11.417Z,0.40
2022-09-18T18:54:38.212Z,0.57
2022-09-18T18:57:09.160Z,0.65
2022-09-18T18:59:36.220Z,0.50
2022-09-18T19:02:03.364Z,0.50
2022-09-18T19:04:29.983Z,0.43
2022-09-18T19:06:56.656Z,0.50
2022-09-18T19:09:24.536Z,0.52
2022-09-18T19:11:52.833Z,0.40
2022-09-18T19:14:22.156Z,1.15
2022-09-18T19:16:51.045Z,0.60
2022-09-18T19:19:19.772Z,0.40
2022-09-18T19:21:46.857Z,0.43
2022-09-18T19:24:13.736Z,0.40
2022-09-18T19:26:41.726Z,0.80
2022-09-18T19:29:12.239Z,0.55
2022-09-18T19:31:40.462Z,0.40
2022-09-18T19:34:07.479Z,0.68
2022-09-18T19:36:34.549Z,0.60
2022-09-18T19:39:04.367Z,0.63
2022-09-18T19:41:55.321Z,0.60
2022-09-18T19:44:38.975Z,0.73
2022-09-18T19:47:31.334Z,0.52
2022-09-18T19:49:58.947Z,0.60
2022-09-18T19:52:29.751Z,0.65
2022-09-18T19:54:57.598Z,0.75
2022-09-18T19:57:24.627Z,0.75
2022-09-18T19:59:55.770Z,0.90
2022-09-18T20:02:22.859Z,0.50
2022-09-18T20:04:49.531Z,0.70
2022-09-18T20:07:16.050Z,0.80
2022-09-18T20:09:42.604Z,0.60
2022-09-18T20:12:09.872Z,0.60
2022-09-18T20:14:36.378Z,0.85
2022-09-18T20:17:03.016Z,1.13
2022-09-18T20:19:29.722Z,1.92
2022-09-18T20:21:56.298Z,1.50
2022-09-18T20:24:22.853Z,1.30
2022-09-18T20:26:51.166Z,1.13
2022-09-18T20:29:17.755Z,0.60
2022-09-18T20:31:45.958Z,0.68
2022-09-18T20:34:13.032Z,0.90
2022-09-18T20:36:39.548Z,0.75
2022-09-18T20:39:06.156Z,0.88
2022-09-18T20:41:32.740Z,1.13
2022-09-18T20:44:01.139Z,1.48
2022-09-18T20:46:27.762Z,1.65
2022-09-18T20:48:57.149Z,1.63
2022-09-18T20:51:26.692Z,1.40
2022-09-18T20:53:58.869Z,1.70
2022-09-18T20:56:27.610Z,1.85
2022-09-18T20:58:54.625Z,2.08
2022-09-18T21:01:24.860Z,2.60
2022-09-18T21:03:57.243Z,2.55
2022-09-18T21:06:26.140Z,2.60
2022-09-18T21:08:54.140Z,3.17
2022-09-18T21:11:26.592Z,3.13
2022-09-18T21:13:55.903Z,3.58
2022-09-18T21:16:25.251Z,3.65
2022-09-18T21:18:55.600Z,3.50
2022-09-18T21:21:22.384Z,3.80
2022-09-18T21:24:00.613Z,4.60
2022-09-18T21:26:35.913Z,4.53
2022-09-18T21:29:22.842Z,4.28
2022-09-18T21:31:51.684Z,4.50
2022-09-18T21:34:31.032Z,4.72
2022-09-18T21:36:59.870Z,5.35
2022-09-18T21:39:28.277Z,5.32
2022-09-18T21:41:55.918Z,5.65
2022-09-18T21:44:26.947Z,5.35
2022-09-18T21:46:54.833Z,5.38
2022-09-18T21:49:22.761Z,6.20
2022-09-18T21:51:50.070Z,6.32
2022-09-18T21:54:21.283Z,6.32
2022-09-18T21:56:51.721Z,7.20
2022-09-18T21:59:23.348Z,7.07
2022-09-18T22:01:52.933Z,7.15
2022-09-18T22:04:24.132Z,6.80
2022-09-18T22:06:50.728Z,7.85
2022-09-18T22:09:26.577Z,7.40
2022-09-18T22:11:53.905Z,6.57
2022-09-18T22:14:25.939Z,6.82
2022-09-18T22:16:53.744Z,5.65
2022-09-18T22:19:20.447Z,6.15
2022-09-18T22:21:49.190Z,5.68
2022-09-18T22:24:18.978Z,5.93
2022-09-18T22:26:50.765Z,5.28
2022-09-18T22:29:28.973Z,5.75
2022-09-18T22:31:55.984Z,5.22
2022-09-18T22:34:24.641Z,5.63
2022-09-18T22:36:51.176Z,5.25
2022-09-18T22:39:19.497Z,4.95
2022-09-18T22:41:46.674Z,4.88
2022-09-18T22:44:14.462Z,4.60
2022-09-18T22:46:43.056Z,5.38
2022-09-18T22:49:12.744Z,4.55
2022-09-18T22:51:39.920Z,3.97
2022-09-18T22:54:09.707Z,3.78
2022-09-18T22:56:41.442Z,4.10
2022-09-18T22:59:08.420Z,3.67
2022-09-18T23:01:42.549Z,4.15
2022-09-18T23:04:09.848Z,4.38
2022-09-18T23:06:36.475Z,5.00
2022-09-18T23:09:04.657Z,4.28
2022-09-18T23:11:33.200Z,4.20
2022-09-18T23:14:05.310Z,4.43
2022-09-18T23:16:33.531Z,5.07
2022-09-18T23:19:05.401Z,5.60
2022-09-18T23:21:33.328Z,4.43
2022-09-18T23:24:04.887Z,4.28
2022-09-18T23:26:35.772Z,4.55
2022-09-18T23:29:05.864Z,4.18
2022-09-18T23:31:35.667Z,4.53
2022-09-18T23:34:05.101Z,4.18
2022-09-18T23:36:34.868Z,3.33
2022-09-18T23:39:07.756Z,3.20
2022-09-18T23:41:34.565Z,2.60
2022-09-18T23:44:02.627Z,3.33
2022-09-18T23:46:29.538Z,2.65
2022-09-18T23:48:56.074Z,3.10
2022-09-18T23:51:24.582Z,3.00
2022-09-18T23:53:51.642Z,3.22
2022-09-18T23:56:18.572Z,3.05
2022-09-18T23:58:45.336Z,3.90
